CMZ2 weather

Public forecast

Using degrees Celsius for public forecast. Weather courtesy of forecast.io.

Closest aviation weather report (METAR) to Arthur (Metz Field)

Closest report is Waterloo Airport, 21.1 nm (39.2 km) S. Retrieved 2020/08/15 09:00 UTC (47 minutes ago):

CYKF 150900Z AUTO 04003KT 9SM CLR 15/13 A3003 RMK SLP167 DENSITY ALT 1200FT

Closest aviation forecast (TAF) to Arthur (Metz Field)

Closest forecast is Waterloo Airport, 21.1 nm (39.2 km) S. Retrieved 2020/08/15 08:39 UTC (1 hour ago):

TAF CYKF 150738Z 1508/1520 05007KT P6SM FEW040 BECMG 1514/1516 11010KT RMK FCST BASED ON AUTO OBS NXT FCST BY 151400Z